sensor_id;sensor_type;location;lat;lon;timestamp;pressure;altitude;pressure_sealevel;temperature;humidity
50394;BME280;36308;46.312;25.288;2023-05-27T00:00:58;96259.94;;;13.45;68.00
50394;BME280;36308;46.312;25.288;2023-05-27T00:03:23;96257.22;;;13.40;68.31
50394;BME280;36308;46.312;25.288;2023-05-27T00:05:49;96263.72;;;13.39;68.17
50394;BME280;36308;46.312;25.288;2023-05-27T00:08:15;96255.06;;;13.37;68.36
50394;BME280;36308;46.312;25.288;2023-05-27T00:10:40;96249.38;;;13.33;68.44
50394;BME280;36308;46.312;25.288;2023-05-27T00:13:06;96253.19;;;13.32;68.61
50394;BME280;36308;46.312;25.288;2023-05-27T00:15:31;96243.97;;;13.28;68.54
50394;BME280;36308;46.312;25.288;2023-05-27T00:17:59;96241.78;;;13.25;68.51
50394;BME280;36308;46.312;25.288;2023-05-27T00:20:27;96233.72;;;13.20;68.71
50394;BME280;36308;46.312;25.288;2023-05-27T00:22:55;96243.66;;;13.20;68.43
50394;BME280;36308;46.312;25.288;2023-05-27T00:25:22;96240.72;;;13.16;68.61
50394;BME280;36308;46.312;25.288;2023-05-27T00:27:48;96243.94;;;13.13;68.50
50394;BME280;36308;46.312;25.288;2023-05-27T00:30:15;96227.22;;;13.06;68.36
50394;BME280;36308;46.312;25.288;2023-05-27T00:32:41;96228.28;;;13.05;68.44
50394;BME280;36308;46.312;25.288;2023-05-27T00:35:07;96233.13;;;13.03;68.31
50394;BME280;36308;46.312;25.288;2023-05-27T00:37:33;96235.03;;;12.97;68.40
50394;BME280;36308;46.312;25.288;2023-05-27T00:39:58;96236.34;;;12.94;68.63
50394;BME280;36308;46.312;25.288;2023-05-27T00:42:24;96218.53;;;12.83;68.40
50394;BME280;36308;46.312;25.288;2023-05-27T00:44:50;96232.03;;;12.88;68.92
50394;BME280;36308;46.312;25.288;2023-05-27T00:47:16;96227.19;;;12.85;68.54
50394;BME280;36308;46.312;25.288;2023-05-27T00:49:42;96220.97;;;12.74;68.58
50394;BME280;36308;46.312;25.288;2023-05-27T00:52:09;96226.59;;;12.78;68.47
50394;BME280;36308;46.312;25.288;2023-05-27T00:54:34;96220.13;;;12.74;68.41
50394;BME280;36308;46.312;25.288;2023-05-27T00:57:01;96226.63;;;12.68;68.58
50394;BME280;36308;46.312;25.288;2023-05-27T00:59:29;96219.03;;;12.65;68.73
50394;BME280;36308;46.312;25.288;2023-05-27T01:01:54;96227.69;;;12.62;68.62
50394;BME280;36308;46.312;25.288;2023-05-27T01:04:20;96224.44;;;12.60;68.51
50394;BME280;36308;46.312;25.288;2023-05-27T01:09:35;96221.72;;;12.54;68.86
50394;BME280;36308;46.312;25.288;2023-05-27T01:12:14;96221.72;;;12.49;68.81
50394;BME280;36308;46.312;25.288;2023-05-27T01:14:43;96221.97;;;12.48;68.38
50394;BME280;36308;46.312;25.288;2023-05-27T01:17:09;96221.69;;;12.44;68.61
50394;BME280;36308;46.312;25.288;2023-05-27T01:19:41;96216.28;;;12.39;68.95
50394;BME280;36308;46.312;25.288;2023-05-27T01:22:12;96216.53;;;12.38;68.73
50394;BME280;36308;46.312;25.288;2023-05-27T01:24:41;96215.19;;;12.35;68.66
50394;BME280;36308;46.312;25.288;2023-05-27T01:27:07;96207.88;;;12.30;68.54
50394;BME280;36308;46.312;25.288;2023-05-27T01:29:34;96208.66;;;12.26;68.39
50394;BME280;36308;46.312;25.288;2023-05-27T01:35:02;96211.34;;;12.21;68.30
50394;BME280;36308;46.312;25.288;2023-05-27T01:37:34;96210.25;;;12.17;68.72
50394;BME280;36308;46.312;25.288;2023-05-27T01:40:01;96216.16;;;12.13;68.43
50394;BME280;36308;46.312;25.288;2023-05-27T01:42:33;96203.72;;;12.02;68.78
50394;BME280;36308;46.312;25.288;2023-05-27T01:45:02;96222.59;;;12.07;68.59
50394;BME280;36308;46.312;25.288;2023-05-27T01:47:30;96219.91;;;12.02;69.11
50394;BME280;36308;46.312;25.288;2023-05-27T01:49:55;96216.66;;;12.00;68.93
50394;BME280;36308;46.312;25.288;2023-05-27T01:52:21;96217.72;;;11.99;68.97
50394;BME280;36308;46.312;25.288;2023-05-27T01:54:46;96206.06;;;11.88;69.13
50394;BME280;36308;46.312;25.288;2023-05-27T01:57:12;96196.66;;;11.91;69.01
50394;BME280;36308;46.312;25.288;2023-05-27T01:59:37;96211.75;;;11.92;68.55
50394;BME280;36308;46.312;25.288;2023-05-27T02:02:03;96211.22;;;11.90;69.30
50394;BME280;36308;46.312;25.288;2023-05-27T02:04:28;96213.31;;;11.88;68.94
50394;BME280;36308;46.312;25.288;2023-05-27T02:06:54;96207.63;;;11.84;68.93
50394;BME280;36308;46.312;25.288;2023-05-27T02:09:19;96208.97;;;11.82;68.90
50394;BME280;36308;46.312;25.288;2023-05-27T02:11:46;96216.50;;;11.80;69.12
50394;BME280;36308;46.312;25.288;2023-05-27T02:14:11;96213.25;;;11.78;69.02
50394;BME280;36308;46.312;25.288;2023-05-27T02:16:37;96208.41;;;11.75;68.98
50394;BME280;36308;46.312;25.288;2023-05-27T02:19:05;96212.69;;;11.70;68.95
50394;BME280;36308;46.312;25.288;2023-05-27T02:21:30;96210.25;;;11.69;68.89
50394;BME280;36308;46.312;25.288;2023-05-27T02:23:56;96215.34;;;11.65;69.39
50394;BME280;36308;46.312;25.288;2023-05-27T02:26:22;96219.63;;;11.61;69.31
50394;BME280;36308;46.312;25.288;2023-05-27T02:28:47;96218.25;;;11.59;69.19
50394;BME280;36308;46.312;25.288;2023-05-27T02:31:13;96214.47;;;11.55;69.18
50394;BME280;36308;46.312;25.288;2023-05-27T02:33:38;96214.72;;;11.53;69.30
50394;BME280;36308;46.312;25.288;2023-05-27T02:36:04;96206.06;;;11.46;68.86
50394;BME280;36308;46.312;25.288;2023-05-27T02:38:31;96203.94;;;11.48;69.23
50394;BME280;36308;46.312;25.288;2023-05-27T02:40:56;96208.75;;;11.46;69.21
50394;BME280;36308;46.312;25.288;2023-05-27T02:43:22;96205.22;;;11.45;69.36
50394;BME280;36308;46.312;25.288;2023-05-27T02:45:47;96217.34;;;11.43;69.95
50394;BME280;36308;46.312;25.288;2023-05-27T02:48:13;96215.72;;;11.42;69.58
50394;BME280;36308;46.312;25.288;2023-05-27T02:50:38;96216.78;;;11.41;69.99
50394;BME280;36308;46.312;25.288;2023-05-27T02:53:04;96223.25;;;11.40;70.04
50394;BME280;36308;46.312;25.288;2023-05-27T02:55:29;96225.38;;;11.38;69.68
50394;BME280;36308;46.312;25.288;2023-05-27T02:57:55;96227.53;;;11.36;69.66
50394;BME280;36308;46.312;25.288;2023-05-27T03:00:20;96233.72;;;11.36;69.41
50394;BME280;36308;46.312;25.288;2023-05-27T03:02:47;96228.03;;;11.32;69.35
50394;BME280;36308;46.312;25.288;2023-05-27T03:05:13;96234.25;;;11.33;69.50
50394;BME280;36308;46.312;25.288;2023-05-27T03:07:39;96232.59;;;11.32;70.06
50394;BME280;36308;46.312;25.288;2023-05-27T03:10:06;96223.16;;;11.29;70.07
50394;BME280;36308;46.312;25.288;2023-05-27T03:12:32;96228.56;;;11.29;69.61
50394;BME280;36308;46.312;25.288;2023-05-27T03:14:58;96228.56;;;11.29;69.82
50394;BME280;36308;46.312;25.288;2023-05-27T03:17:24;96223.66;;;11.26;69.90
50394;BME280;36308;46.312;25.288;2023-05-27T03:19:49;96222.06;;;11.25;69.84
50394;BME280;36308;46.312;25.288;2023-05-27T03:22:15;96223.66;;;11.26;70.04
50394;BME280;36308;46.312;25.288;2023-05-27T03:24:41;96215.56;;;11.21;69.80
50394;BME280;36308;46.312;25.288;2023-05-27T03:27:06;96223.13;;;11.24;70.10
50394;BME280;36308;46.312;25.288;2023-05-27T03:29:32;96209.88;;;11.18;70.09
50394;BME280;36308;46.312;25.288;2023-05-27T03:31:58;96219.31;;;11.20;69.52
50394;BME280;36308;46.312;25.288;2023-05-27T03:34:23;96220.94;;;11.21;69.83
50394;BME280;36308;46.312;25.288;2023-05-27T03:36:49;96222.28;;;11.19;69.55
50394;BME280;36308;46.312;25.288;2023-05-27T03:39:16;96231.72;;;11.21;70.46
50394;BME280;36308;46.312;25.288;2023-05-27T03:41:42;96229.03;;;11.21;70.33
50394;BME280;36308;46.312;25.288;2023-05-27T03:44:08;96226.84;;;11.18;70.17
50394;BME280;36308;46.312;25.288;2023-05-27T03:46:34;96231.72;;;11.21;69.87
50394;BME280;36308;46.312;25.288;2023-05-27T03:49:00;96231.72;;;11.21;70.25
50394;BME280;36308;46.312;25.288;2023-05-27T03:51:25;96233.31;;;11.22;70.77
50394;BME280;36308;46.312;25.288;2023-05-27T03:53:51;96228.50;;;11.24;70.37
50394;BME280;36308;46.312;25.288;2023-05-27T03:56:16;96233.63;;;11.26;70.49
50394;BME280;36308;46.312;25.288;2023-05-27T03:58:42;96226.13;;;11.28;70.72
50394;BME280;36308;46.312;25.288;2023-05-27T04:01:07;96233.94;;;11.29;70.73
50394;BME280;36308;46.312;25.288;2023-05-27T04:03:33;96237.19;;;11.31;71.19
50394;BME280;36308;46.312;25.288;2023-05-27T04:05:59;96229.91;;;11.32;71.29
50394;BME280;36308;46.312;25.288;2023-05-27T04:08:25;96233.47;;;11.38;70.96
50394;BME280;36308;46.312;25.288;2023-05-27T04:10:56;96234.56;;;11.42;70.89
50394;BME280;36308;46.312;25.288;2023-05-27T04:13:22;96233.25;;;11.44;71.42
50394;BME280;36308;46.312;25.288;2023-05-27T04:15:47;96230.28;;;11.46;71.49
50394;BME280;36308;46.312;25.288;2023-05-27T04:18:14;96236.50;;;11.51;71.54
50394;BME280;36308;46.312;25.288;2023-05-27T04:20:40;96238.44;;;11.56;71.48
50394;BME280;36308;46.312;25.288;2023-05-27T04:23:08;96227.16;;;11.59;71.92
50394;BME280;36308;46.312;25.288;2023-05-27T04:25:34;96240.13;;;11.67;71.71
50394;BME280;36308;46.312;25.288;2023-05-27T04:28:01;96232.06;;;11.67;71.76
50394;BME280;36308;46.312;25.288;2023-05-27T04:30:30;96232.91;;;11.73;71.61
50394;BME280;36308;46.312;25.288;2023-05-27T04:32:55;96233.19;;;11.77;71.65
50394;BME280;36308;46.312;25.288;2023-05-27T04:35:21;96239.13;;;11.79;71.91
50394;BME280;36308;46.312;25.288;2023-05-27T04:37:47;96237.00;;;11.81;71.36
50394;BME280;36308;46.312;25.288;2023-05-27T04:40:13;96233.78;;;11.84;71.41
50394;BME280;36308;46.312;25.288;2023-05-27T04:42:38;96237.00;;;11.86;71.42
50394;BME280;36308;46.312;25.288;2023-05-27T04:45:05;96234.88;;;11.88;71.76
50394;BME280;36308;46.312;25.288;2023-05-27T04:47:32;96234.38;;;11.91;71.69
50394;BME280;36308;46.312;25.288;2023-05-27T04:49:58;96224.69;;;11.95;71.40
50394;BME280;36308;46.312;25.288;2023-05-27T04:52:26;96231.72;;;11.96;71.85
50394;BME280;36308;46.312;25.288;2023-05-27T04:54:52;96221.19;;;11.95;71.74
50394;BME280;36308;46.312;25.288;2023-05-27T04:57:20;96230.97;;;12.06;71.92
50394;BME280;36308;46.312;25.288;2023-05-27T04:59:46;96236.63;;;12.09;72.17
50394;BME280;36308;46.312;25.288;2023-05-27T05:02:26;96242.59;;;12.17;72.38
50394;BME280;36308;46.312;25.288;2023-05-27T05:05:04;96237.22;;;12.22;72.47
50394;BME280;36308;46.312;25.288;2023-05-27T05:07:30;96239.41;;;12.25;72.18
50394;BME280;36308;46.312;25.288;2023-05-27T05:09:56;96235.66;;;12.36;72.45
50394;BME280;36308;46.312;25.288;2023-05-27T05:12:23;96229.75;;;12.44;72.13
50394;BME280;36308;46.312;25.288;2023-05-27T05:14:49;96229.25;;;12.52;72.26
50394;BME280;36308;46.312;25.288;2023-05-27T05:17:14;96229.81;;;12.54;71.83
50394;BME280;36308;46.312;25.288;2023-05-27T05:19:40;96233.63;;;12.74;72.01
50394;BME280;36308;46.312;25.288;2023-05-27T05:22:05;96233.38;;;12.86;71.94
50394;BME280;36308;46.312;25.288;2023-05-27T05:24:31;96239.09;;;13.00;71.90
50394;BME280;36308;46.312;25.288;2023-05-27T05:26:56;96237.19;;;13.10;71.91
50394;BME280;36308;46.312;25.288;2023-05-27T05:29:22;96230.19;;;13.20;71.75
50394;BME280;36308;46.312;25.288;2023-05-27T05:31:47;96232.66;;;13.37;71.31
50394;BME280;36308;46.312;25.288;2023-05-27T05:34:13;96228.34;;;13.51;71.10
50394;BME280;36308;46.312;25.288;2023-05-27T05:36:38;96234.25;;;13.63;70.94
50394;BME280;36308;46.312;25.288;2023-05-27T05:39:04;96236.94;;;13.79;70.91
50394;BME280;36308;46.312;25.288;2023-05-27T05:41:30;96241.22;;;13.90;70.53
50394;BME280;36308;46.312;25.288;2023-05-27T05:43:56;96239.06;;;13.97;70.64
50394;BME280;36308;46.312;25.288;2023-05-27T05:46:21;96240.13;;;14.11;70.89
50394;BME280;36308;46.312;25.288;2023-05-27T05:48:47;96237.38;;;14.22;70.67
50394;BME280;36308;46.312;25.288;2023-05-27T05:51:12;96239.53;;;14.30;70.76
50394;BME280;36308;46.312;25.288;2023-05-27T05:53:38;96236.78;;;14.35;70.93
50394;BME280;36308;46.312;25.288;2023-05-27T05:56:03;96242.16;;;14.45;71.11
50394;BME280;36308;46.312;25.288;2023-05-27T05:58:29;96245.09;;;14.54;70.93
50394;BME280;36308;46.312;25.288;2023-05-27T06:00:55;96239.41;;;14.61;70.98
50394;BME280;36308;46.312;25.288;2023-05-27T06:03:20;96247.50;;;14.66;71.31
50394;BME280;36308;46.312;25.288;2023-05-27T06:05:46;96246.66;;;14.75;71.26
50394;BME280;36308;46.312;25.288;2023-05-27T06:08:11;96251.75;;;14.82;71.37
50394;BME280;36308;46.312;25.288;2023-05-27T06:10:37;96256.56;;;14.90;71.58
50394;BME280;36308;46.312;25.288;2023-05-27T06:13:03;96257.59;;;15.00;71.72
50394;BME280;36308;46.312;25.288;2023-05-27T06:15:29;96257.53;;;15.10;71.37
50394;BME280;36308;46.312;25.288;2023-05-27T06:17:56;96262.88;;;15.20;71.60
50394;BME280;36308;46.312;25.288;2023-05-27T06:20:21;96265.00;;;15.28;71.25
50394;BME280;36308;46.312;25.288;2023-05-27T06:22:48;96274.38;;;15.41;71.36
50394;BME280;36308;46.312;25.288;2023-05-27T06:25:14;96268.88;;;15.51;71.25
50394;BME280;36308;46.312;25.288;2023-05-27T06:27:41;96266.88;;;15.62;71.24
50394;BME280;36308;46.312;25.288;2023-05-27T06:30:07;96269.53;;;15.72;70.90
50394;BME280;36308;46.312;25.288;2023-05-27T06:32:32;96268.66;;;15.82;70.68
50394;BME280;36308;46.312;25.288;2023-05-27T06:34:58;96272.59;;;15.95;70.92
50394;BME280;36308;46.312;25.288;2023-05-27T06:37:23;96275.22;;;16.05;70.94
50394;BME280;36308;46.312;25.288;2023-05-27T06:39:49;96273.19;;;16.16;70.32
50394;BME280;36308;46.312;25.288;2023-05-27T06:42:15;96273.88;;;16.27;69.94
50394;BME280;36308;46.312;25.288;2023-05-27T06:44:40;96273.78;;;16.37;69.45
50394;BME280;36308;46.312;25.288;2023-05-27T06:47:06;96277.50;;;16.46;69.22
50394;BME280;36308;46.312;25.288;2023-05-27T06:49:31;96281.16;;;16.55;68.51
50394;BME280;36308;46.312;25.288;2023-05-27T06:51:57;96283.25;;;16.64;68.22
50394;BME280;36308;46.312;25.288;2023-05-27T06:54:22;96276.88;;;16.73;68.20
50394;BME280;36308;46.312;25.288;2023-05-27T06:56:48;96279.00;;;16.82;67.80
50394;BME280;36308;46.312;25.288;2023-05-27T06:59:13;96284.56;;;16.90;67.38
50394;BME280;36308;46.312;25.288;2023-05-27T07:01:39;96272.25;;;16.98;66.95
50394;BME280;36308;46.312;25.288;2023-05-27T07:04:04;96270.19;;;17.09;66.88
50394;BME280;36308;46.312;25.288;2023-05-27T07:06:30;96270.06;;;17.19;66.32
50394;BME280;36308;46.312;25.288;2023-05-27T07:08:55;96273.03;;;17.36;65.58
50394;BME280;36308;46.312;25.288;2023-05-27T07:11:21;96267.47;;;17.47;65.04
50394;BME280;36308;46.312;25.288;2023-05-27T07:13:47;96271.94;;;17.56;65.00
50394;BME280;36308;46.312;25.288;2023-05-27T07:16:13;96273.09;;;17.69;64.71
50394;BME280;36308;46.312;25.288;2023-05-27T07:18:38;96266.38;;;17.81;64.54
50394;BME280;36308;46.312;25.288;2023-05-27T07:21:04;96268.34;;;17.94;64.49
50394;BME280;36308;46.312;25.288;2023-05-27T07:23:29;96269.19;;;18.08;64.22
50394;BME280;36308;46.312;25.288;2023-05-27T07:25:55;96266.16;;;18.24;63.79
50394;BME280;36308;46.312;25.288;2023-05-27T07:28:20;96264.25;;;18.38;63.14
50394;BME280;36308;46.312;25.288;2023-05-27T07:30:46;96267.09;;;18.61;62.92
50394;BME280;36308;46.312;25.288;2023-05-27T07:33:13;96264.88;;;18.76;62.87
50394;BME280;36308;46.312;25.288;2023-05-27T07:35:38;96264.56;;;18.92;62.92
50394;BME280;36308;46.312;25.288;2023-05-27T07:38:05;96255.75;;;19.09;62.33
50394;BME280;36308;46.312;25.288;2023-05-27T07:40:31;96251.25;;;19.27;60.88
50394;BME280;36308;46.312;25.288;2023-05-27T07:42:56;96259.41;;;19.41;60.31
50394;BME280;36308;46.312;25.288;2023-05-27T07:45:22;96248.75;;;19.53;59.08
50394;BME280;36308;46.312;25.288;2023-05-27T07:47:48;96242.06;;;19.59;58.26
50394;BME280;36308;46.312;25.288;2023-05-27T07:50:13;96254.09;;;19.81;57.31
50394;BME280;36308;46.312;25.288;2023-05-27T07:52:40;96250.97;;;19.96;56.49
50394;BME280;36308;46.312;25.288;2023-05-27T07:55:06;96257.78;;;20.07;55.76
50394;BME280;36308;46.312;25.288;2023-05-27T07:57:32;96255.13;;;20.25;55.32
50394;BME280;36308;46.312;25.288;2023-05-27T07:59:58;96254.72;;;20.40;54.68
50394;BME280;36308;46.312;25.288;2023-05-27T08:02:23;96251.56;;;20.55;53.94
50394;BME280;36308;46.312;25.288;2023-05-27T08:04:51;96260.94;;;20.72;52.99
50394;BME280;36308;46.312;25.288;2023-05-27T08:07:16;96256.16;;;20.86;52.38
50394;BME280;36308;46.312;25.288;2023-05-27T08:09:42;96258.59;;;21.05;52.19
50394;BME280;36308;46.312;25.288;2023-05-27T08:12:08;96257.81;;;21.22;51.60
50394;BME280;36308;46.312;25.288;2023-05-27T08:14:38;96254.75;;;21.41;50.83
50394;BME280;36308;46.312;25.288;2023-05-27T08:17:04;96260.28;;;21.58;50.80
50394;BME280;36308;46.312;25.288;2023-05-27T08:19:29;96259.44;;;21.75;50.17
50394;BME280;36308;46.312;25.288;2023-05-27T08:21:56;96261.03;;;21.94;50.18
50394;BME280;36308;46.312;25.288;2023-05-27T08:24:22;96260.66;;;22.13;49.91
50394;BME280;36308;46.312;25.288;2023-05-27T08:26:49;96255.50;;;22.29;48.97
50394;BME280;36308;46.312;25.288;2023-05-27T08:29:15;96261.69;;;22.47;48.83
50394;BME280;36308;46.312;25.288;2023-05-27T08:31:41;96263.22;;;22.65;48.21
50394;BME280;36308;46.312;25.288;2023-05-27T08:34:07;96262.66;;;22.80;47.82
50394;BME280;36308;46.312;25.288;2023-05-27T08:36:32;96254.81;;;23.00;47.98
50394;BME280;36308;46.312;25.288;2023-05-27T08:38:58;96250.84;;;23.18;47.61
50394;BME280;36308;46.312;25.288;2023-05-27T08:41:24;96258.41;;;23.43;47.22
50394;BME280;36308;46.312;25.288;2023-05-27T08:43:52;96249.00;;;23.65;46.83
50394;BME280;36308;46.312;25.288;2023-05-27T08:46:20;96245.56;;;23.76;46.16
50394;BME280;36308;46.312;25.288;2023-05-27T08:48:47;96250.19;;;23.97;46.02
50394;BME280;36308;46.312;25.288;2023-05-27T08:51:13;96255.03;;;24.12;45.42
50394;BME280;36308;46.312;25.288;2023-05-27T08:53:41;96250.50;;;24.29;44.95
50394;BME280;36308;46.312;25.288;2023-05-27T08:56:08;96247.06;;;24.44;44.27
50394;BME280;36308;46.312;25.288;2023-05-27T08:58:39;96237.50;;;24.63;44.99
50394;BME280;36308;46.312;25.288;2023-05-27T09:01:05;96245.28;;;24.85;44.25
50394;BME280;36308;46.312;25.288;2023-05-27T09:03:30;96227.25;;;25.00;44.46
50394;BME280;36308;46.312;25.288;2023-05-27T09:05:56;96233.91;;;25.24;44.19
50394;BME280;36308;46.312;25.288;2023-05-27T09:08:21;96239.31;;;25.48;43.83
50394;BME280;36308;46.312;25.288;2023-05-27T09:10:48;96234.53;;;25.73;43.40
50394;BME280;36308;46.312;25.288;2023-05-27T09:13:13;96228.47;;;25.96;43.32
50394;BME280;36308;46.312;25.288;2023-05-27T09:15:40;96220.78;;;26.17;41.74
50394;BME280;36308;46.312;25.288;2023-05-27T09:18:06;96234.56;;;26.33;41.41
50394;BME280;36308;46.312;25.288;2023-05-27T09:20:31;96224.81;;;26.36;41.13
50394;BME280;36308;46.312;25.288;2023-05-27T09:23:01;96221.16;;;26.32;41.97
50394;BME280;36308;46.312;25.288;2023-05-27T09:25:27;96214.56;;;26.20;42.29
50394;BME280;36308;46.312;25.288;2023-05-27T09:27:54;96206.38;;;26.08;42.78
50394;BME280;36308;46.312;25.288;2023-05-27T09:30:21;96206.00;;;25.94;42.51
50394;BME280;36308;46.312;25.288;2023-05-27T09:32:47;96201.69;;;25.80;42.98
50394;BME280;36308;46.312;25.288;2023-05-27T09:35:15;96204.50;;;25.68;43.24
50394;BME280;36308;46.312;25.288;2023-05-27T09:37:41;96208.91;;;25.57;43.16
50394;BME280;36308;46.312;25.288;2023-05-27T09:40:11;96207.69;;;25.42;43.45
50394;BME280;36308;46.312;25.288;2023-05-27T09:42:46;96209.91;;;25.36;43.30
50394;BME280;36308;46.312;25.288;2023-05-27T09:45:17;96207.19;;;25.24;42.82
50394;BME280;36308;46.312;25.288;2023-05-27T09:47:48;96198.94;;;25.12;42.77
50394;BME280;36308;46.312;25.288;2023-05-27T09:50:13;96206.63;;;25.06;42.74
50394;BME280;36308;46.312;25.288;2023-05-27T09:52:45;96212.84;;;25.03;42.40
50394;BME280;36308;46.312;25.288;2023-05-27T09:55:13;96220.97;;;24.99;42.77
50394;BME280;36308;46.312;25.288;2023-05-27T09:57:39;96218.56;;;24.98;42.81
50394;BME280;36308;46.312;25.288;2023-05-27T10:00:10;96224.41;;;24.96;43.11
50394;BME280;36308;46.312;25.288;2023-05-27T10:02:45;96216.50;;;24.95;43.57
50394;BME280;36308;46.312;25.288;2023-05-27T10:05:16;96213.97;;;24.90;43.59
50394;BME280;36308;46.312;25.288;2023-05-27T10:07:44;96211.47;;;24.85;43.65
50394;BME280;36308;46.312;25.288;2023-05-27T10:10:11;96212.88;;;24.78;43.51
50394;BME280;36308;46.312;25.288;2023-05-27T10:12:39;96226.03;;;24.73;43.79
50394;BME280;36308;46.312;25.288;2023-05-27T10:15:05;96247.81;;;24.66;44.30
50394;BME280;36308;46.312;25.288;2023-05-27T10:17:47;96260.84;;;24.56;45.04
50394;BME280;36308;46.312;25.288;2023-05-27T10:20:41;96259.69;;;24.45;45.76
50394;BME280;36308;46.312;25.288;2023-05-27T10:25:47;96264.19;;;24.16;46.80
50394;BME280;36308;46.312;25.288;2023-05-27T10:28:32;96267.72;;;24.05;47.57
50394;BME280;36308;46.312;25.288;2023-05-27T10:31:17;96263.34;;;23.91;48.23
50394;BME280;36308;46.312;25.288;2023-05-27T10:33:48;96260.53;;;23.79;48.51
50394;BME280;36308;46.312;25.288;2023-05-27T10:36:26;96262.41;;;23.66;48.81
50394;BME280;36308;46.312;25.288;2023-05-27T10:39:15;96252.50;;;23.53;48.77
50394;BME280;36308;46.312;25.288;2023-05-27T10:41:53;96244.88;;;23.37;48.64
50394;BME280;36308;46.312;25.288;2023-05-27T10:44:27;96237.94;;;23.19;48.88
50394;BME280;36308;46.312;25.288;2023-05-27T10:47:03;96244.16;;;22.98;48.68
50394;BME280;36308;46.312;25.288;2023-05-27T10:49:34;96249.63;;;22.77;49.05
50394;BME280;36308;46.312;25.288;2023-05-27T10:52:25;96253.91;;;22.57;49.47
50394;BME280;36308;46.312;25.288;2023-05-27T10:54:52;96242.56;;;22.38;49.77
50394;BME280;36308;46.312;25.288;2023-05-27T10:57:19;96232.63;;;22.25;50.11
50394;BME280;36308;46.312;25.288;2023-05-27T10:59:48;96226.81;;;22.17;50.35
50394;BME280;36308;46.312;25.288;2023-05-27T11:02:14;96226.84;;;22.09;50.72
50394;BME280;36308;46.312;25.288;2023-05-27T11:04:40;96219.00;;;21.98;50.91
50394;BME280;36308;46.312;25.288;2023-05-27T11:07:06;96217.41;;;21.89;51.19
50394;BME280;36308;46.312;25.288;2023-05-27T11:09:45;96216.16;;;21.77;51.63
50394;BME280;36308;46.312;25.288;2023-05-27T11:12:15;96224.69;;;21.67;51.73
50394;BME280;36308;46.312;25.288;2023-05-27T11:14:46;96227.28;;;21.55;52.11
50394;BME280;36308;46.312;25.288;2023-05-27T11:17:12;96221.94;;;21.41;52.56
50394;BME280;36308;46.312;25.288;2023-05-27T11:19:39;96223.91;;;21.23;52.96
50394;BME280;36308;46.312;25.288;2023-05-27T11:22:09;96214.25;;;21.17;53.23
50394;BME280;36308;46.312;25.288;2023-05-27T11:24:36;96199.94;;;21.03;53.37
50394;BME280;36308;46.312;25.288;2023-05-27T11:27:14;96200.88;;;20.89;54.09
50394;BME280;36308;46.312;25.288;2023-05-27T11:29:49;96202.78;;;20.80;53.94
50394;BME280;36308;46.312;25.288;2023-05-27T11:32:17;96209.03;;;20.72;54.23
50394;BME280;36308;46.312;25.288;2023-05-27T11:34:44;96213.84;;;20.66;54.74
50394;BME280;36308;46.312;25.288;2023-05-27T11:37:10;96222.00;;;20.57;54.94
50394;BME280;36308;46.312;25.288;2023-05-27T11:39:36;96217.81;;;20.51;55.21
50394;BME280;36308;46.312;25.288;2023-05-27T11:42:05;96230.97;;;20.49;55.25
50394;BME280;36308;46.312;25.288;2023-05-27T11:44:34;96233.22;;;20.47;55.46
50394;BME280;36308;46.312;25.288;2023-05-27T11:47:00;96232.72;;;20.45;55.48
50394;BME280;36308;46.312;25.288;2023-05-27T11:49:27;96248.63;;;20.43;55.52
50394;BME280;36308;46.312;25.288;2023-05-27T11:51:57;96252.00;;;20.40;55.33
50394;BME280;36308;46.312;25.288;2023-05-27T11:54:30;96262.72;;;20.36;55.67
50394;BME280;36308;46.312;25.288;2023-05-27T11:56:58;96255.50;;;20.32;55.49
50394;BME280;36308;46.312;25.288;2023-05-27T11:59:24;96258.84;;;20.29;55.52
50394;BME280;36308;46.312;25.288;2023-05-27T12:01:51;96257.84;;;20.25;55.65
50394;BME280;36308;46.312;25.288;2023-05-27T12:04:19;96251.22;;;20.17;55.93
50394;BME280;36308;46.312;25.288;2023-05-27T12:06:45;96252.06;;;20.17;56.23
50394;BME280;36308;46.312;25.288;2023-05-27T12:09:11;96249.63;;;20.16;56.19
50394;BME280;36308;46.312;25.288;2023-05-27T12:11:38;96257.31;;;20.14;56.64
50394;BME280;36308;46.312;25.288;2023-05-27T12:14:04;96252.50;;;20.11;56.20
50394;BME280;36308;46.312;25.288;2023-05-27T12:16:30;96246.56;;;20.09;56.58
50394;BME280;36308;46.312;25.288;2023-05-27T12:18:57;96242.00;;;20.04;56.41
50394;BME280;36308;46.312;25.288;2023-05-27T12:21:23;96231.56;;;19.97;56.41
50394;BME280;36308;46.312;25.288;2023-05-27T12:23:49;96244.88;;;19.99;56.50
50394;BME280;36308;46.312;25.288;2023-05-27T12:26:15;96241.66;;;19.97;56.73
50394;BME280;36308;46.312;25.288;2023-05-27T12:28:41;96236.81;;;19.94;56.76
50394;BME280;36308;46.312;25.288;2023-05-27T12:31:07;96228.97;;;19.92;56.86
50394;BME280;36308;46.312;25.288;2023-05-27T12:33:33;96218.38;;;19.91;57.09
50394;BME280;36308;46.312;25.288;2023-05-27T12:36:00;96214.66;;;19.87;56.99
50394;BME280;36308;46.312;25.288;2023-05-27T12:38:26;96208.22;;;19.83;56.97
50394;BME280;36308;46.312;25.288;2023-05-27T12:40:52;96211.88;;;19.78;56.99
50394;BME280;36308;46.312;25.288;2023-05-27T12:43:18;96195.94;;;19.71;57.57
50394;BME280;36308;46.312;25.288;2023-05-27T12:45:45;96205.25;;;19.70;57.13
50394;BME280;36308;46.312;25.288;2023-05-27T12:48:13;96200.41;;;19.67;57.03
50394;BME280;36308;46.312;25.288;2023-05-27T12:50:39;96206.47;;;19.64;56.74
50394;BME280;36308;46.312;25.288;2023-05-27T12:53:07;96196.94;;;19.53;56.77
50394;BME280;36308;46.312;25.288;2023-05-27T12:55:33;96208.34;;;19.55;56.77
50394;BME280;36308;46.312;25.288;2023-05-27T12:57:59;96196.44;;;19.51;56.49